Station: Laverton  

  Atmospheric Gas Attenuation - ITU Rec 676-11   ----------------- dB/100km -----------------
Date Time Temp RH % AH g/m3 Dew Point Wind Direction Speed kph Gust kph Barometer mB Rainfall Since 9am 24GHz 47GHz 76GHz 122GHz 134GHz 241GHz
10/05 22:50 14.1 64 7.77 7.4 19 20 1026.7 0 17.8 25.0 37.0 96.7 88.3 302.9
10/05 22:40 14.2 64 7.82 7.5 17 19 1026.7 0 17.9 25.0 37.1 97.1 88.8 304.8
10/05 22:30 14.3 64 7.86 7.6 19 22 1026.7 0 18.0 25.1 37.2 97.4 89.2 306.2
10/05 22:20 14.4 63 7.79 7.5 19 19 1026.8 0 17.8 24.9 36.9 96.5 88.2 302.7
10/05 22:10 14.6 62 7.76 7.4 19 19 1026.8 0 17.8 24.8 36.7 96.0 87.6 300.6
10/05 22:00 14.7 61 7.68 7.3 19 24 1026.8 0 17.6 24.7 36.3 95.0 86.5 296.6
10/05 21:50 14.9 61 7.77 7.5 17 20 1026.7 0 17.8 24.8 36.6 95.7 87.4 299.9
10/05 21:40 15.1 60 7.74 7.4 19 22 1026.7 0 17.7 24.7 36.4 95.1 86.8 297.8
10/05 21:30 15.2 59 7.66 7.3 17 20 1026.7 0 17.5 24.5 36.0 94.2 85.6 293.9
10/05 21:20 15.4 58 7.62 7.2 19 20 1026.7 0 17.4 24.4 35.8 93.6 84.9 291.4
10/05 21:10 15.4 57 7.49 6.9 17 19 1026.7 0 17.1 24.2 35.3 92.2 83.3 285.6
10/05 21:00 15.8 56 7.54 7.1 19 22 1026.7 0 17.2 24.2 35.3 92.3 83.5 286.4
10/05 20:50 15.7 56 7.49 7 17 20 1026.7 0 17.1 24.1 35.2 91.9 83.0 284.6
10/05 20:40 15.9 56 7.58 7.1 19 20 1026.7 0 17.3 24.2 35.4 92.6 83.9 287.8
10/05 20:30 16 55 7.49 7 20 24 1026.6 0 17.1 24.0 35.0 91.5 82.7 283.5
10/05 20:20 16 55 7.49 7 19 20 1026.6 0 17.1 24.0 35.0 91.5 82.7 283.5
10/05 20:10 16 55 7.49 7 15 17 1026.6 0 17.1 24.0 35.0 91.5 82.7 283.5
10/05 20:00 16.2 54 7.45 6.9 15 20 1026.4 0 17.0 23.9 34.8 90.9 81.9 281.0
10/05 19:50 16.2 54 7.45 6.9 15 19 1026.3 0 17.0 23.9 34.8 90.9 81.9 281.0
10/05 19:40 16.4 53 7.4 6.8 17 19 1026.3 0 16.9 23.8 34.5 90.2 81.1 278.1
10/05 19:30 16.5 52 7.3 6.6 15 19 1026.2 0 16.7 23.6 34.1 89.0 79.8 273.4
10/05 19:20 16.6 52 7.35 6.7 15 17 1026.2 0 16.8 23.6 34.2 89.4 80.3 275.2
10/05 19:10 16.8 52 7.43 6.9 11 13 1026.1 0 17.0 23.7 34.4 90.0 81.1 278.0
10/05 19:00 17.1 50 7.28 6.6 13 15 1026 0 16.6 23.4 33.8 88.2 78.9 270.5
10/05 18:50 17.4 49 7.26 6.6 13 15 1025.9 0 16.6 23.3 33.6 87.6 78.4 268.6
10/05 18:40 17.7 48 7.24 6.6 17 19 1025.9 0 16.5 23.2 33.4 87.1 77.8 266.8
10/05 18:30 17.8 48 7.28 6.7 17 20 1025.6 0 16.6 23.2 33.5 87.4 78.2 268.1
10/05 18:20 18 47 7.22 6.5 15 17 1025.5 0 16.5 23.1 33.1 86.6 77.3 264.9
10/05 18:10 18.2 46 7.15 6.4 17 17 1025.4 0 16.3 22.9 32.8 85.7 76.3 261.3
10/05 18:00 18.4 46 7.23 6.6 17 22 1025.3 0 16.5 23.0 33.0 86.2 77.0 264.0
10/05 17:50 18.7 45 7.2 6.5 22 26 1025.3 0 16.4 22.9 32.8 85.6 76.4 261.7
10/05 17:40 18.8 45 7.25 6.6 20 24 1025.1 0 16.5 22.9 32.9 86.0 76.8 263.4
10/05 17:30 19 44 7.17 6.5 22 28 1025 0 16.3 22.7 32.5 85.0 75.7 259.5
10/05 17:20 19.3 43 7.13 6.4 19 20 1025 0 16.2 22.6 32.3 84.3 75.0 256.9
10/05 17:10 19.6 42 7.09 6.3 19 22 1024.9 0 16.1 22.5 32.0 83.6 74.2 254.3
10/05 17:00 19.9 36 6.18 4.4 20 30 1024.9 0 14.2 21.1 28.8 74.9 63.5 216.9
10/05 16:50 20.2 35 6.12 4.3 19 20 1024.8 0 14.1 21.0 28.5 74.1 62.6 213.7
10/05 16:40 20.4 35 6.19 4.4 19 20 1024.8 0 14.2 21.0 28.6 74.5 63.3 216.0
10/05 16:30 20.8 34 6.16 4.4 22 28 1024.8 0 14.1 20.9 28.4 73.9 62.6 213.7
10/05 16:20 20.9 35 6.37 4.9 20 26 1024.8 0 14.6 21.2 29.1 75.7 64.9 221.7
10/05 16:10 21.1 34 6.26 4.6 19 20 1024.8 0 14.3 21.0 28.6 74.5 63.5 216.9
10/05 16:00 20.9 34 6.19 4.5 20 28 1024.7 0 14.2 20.9 28.4 74.1 62.9 214.6
10/05 15:50 21.2 34 6.3 4.7 26 30 1024.5 0 14.4 21.0 28.7 74.8 63.8 218.1
10/05 15:40 20.8 34 6.16 4.4 11 17 1024.5 0 14.1 20.9 28.4 73.9 62.6 213.7
10/05 15:30 21.2 34 6.3 4.7 20 28 1024.6 0 14.4 21.0 28.7 74.8 63.9 218.1
10/05 15:20 21.2 34 6.3 4.7 26 30 1024.4 0 14.4 21.0 28.7 74.7 63.8 218.1
10/05 15:10 21.1 34 6.26 4.6 17 19 1024.4 0 14.3 20.9 28.6 74.5 63.5 216.8
10/05 15:00 21 35 6.41 5 19 28 1024.5 0 14.7 21.2 29.1 75.9 65.2 222.9
10/05 14:50 21 35 6.41 5 22 24 1024.4 0 14.7 21.2 29.1 75.9 65.2 222.9
10/05 14:40 20.7 35 6.3 4.7 19 24 1024.5 0 14.4 21.1 28.9 75.2 64.2 219.4
10/05 14:30 20.7 36 6.48 5.1 17 26 1024.6 0 14.8 21.3 29.5 76.8 66.3 226.5
10/05 14:20 21.1 35 6.45 5.1 15 19 1024.5 0 14.7 21.2 29.2 76.2 65.6 224.2
10/05 14:10 21 35 6.41 5 19 22 1024.5 0 14.7 21.2 29.1 75.9 65.2 222.9
10/05 14:00 20.9 36 6.56 5.3 17 28 1024.7 0 15.0 21.4 29.7 77.4 67.0 229.1
10/05 13:50 21.1 36 6.63 5.5 15 17 1024.7 0 15.1 21.5 29.9 77.8 67.6 231.3
10/05 13:40 20.6 36 6.44 5 9 13 1024.9 0 14.7 21.3 29.4 76.6 65.9 225.3
10/05 13:30 21.1 37 6.82 5.9 19 28 1025 0 15.5 21.7 30.5 79.6 69.8 238.9
10/05 13:20 20.6 36 6.44 5 19 20 1025 0 14.7 21.3 29.4 76.6 65.9 225.3
10/05 13:10 20.6 36 6.44 5 20 24 1025.1 0 14.7 21.3 29.4 76.6 65.9 225.3
10/05 13:00 20.4 36 6.37 4.8 17 28 1025.2 0 14.6 21.3 29.2 76.2 65.3 223.1
10/05 12:50 20.5 36 6.41 4.9 24 26 1025.3 0 14.7 21.3 29.3 76.5 65.7 224.4
10/05 12:40 20.9 37 6.74 5.7 15 20 1025.4 0 15.3 21.7 30.3 79.1 69.1 236.4
10/05 12:30 20.5 37 6.58 5.3 19 30 1025.5 0 15.0 21.6 29.9 78.0 67.6 231.2
10/05 12:20 20.5 36 6.41 4.9 19 22 1025.7 0 14.7 21.3 29.4 76.5 65.7 224.5
10/05 12:10 19.5 39 6.54 5.2 15 20 1025.8 0 15.0 21.7 30.2 78.6 68.0 232.5
10/05 12:00 20.3 39 6.86 5.9 19 26 1026 0 15.6 22.0 31.0 80.8 71.0 243.0
10/05 11:50 19.9 40 6.87 5.9 19 24 1026.2 0 15.7 22.1 31.2 81.3 71.5 244.7
10/05 11:40 19.7 42 7.13 6.4 20 26 1026.4 0 16.2 22.6 32.2 84.0 74.7 255.9
10/05 11:30 19.6 43 7.26 6.7 19 30 1026.7 0 16.5 22.8 32.7 85.4 76.3 261.6
10/05 11:20 19.5 43 7.22 6.6 22 28 1026.9 0 16.4 22.7 32.6 85.1 75.9 260.3
10/05 11:10 18.9 47 7.61 7.4 13 19 1027.1 0 17.2 23.5 34.3 89.5 81.2 278.6
10/05 11:00 19.1 49 8.03 8.1 20 30 1027.2 0 18.1 24.0 35.7 93.4 86.0 295.7
10/05 10:50 18.7 51 8.16 8.4 26 30 1027.3 0 18.4 24.4 36.4 95.2 88.1 302.8
10/05 10:40 18.3 52 8.13 8.3 22 26 1027.4 0 18.4 24.4 36.4 95.4 88.2 303.0
10/05 10:30 17.8 55 8.35 8.6 22 32 1027.4 0 18.9 24.9 37.5 98.2 91.5 314.5
10/05 10:20 17.5 57 8.5 8.9 19 20 1027.6 0 19.2 25.2 38.2 100.1 93.7 322.4
10/05 10:10 17.3 57 8.4 8.7 26 28 1027.7 0 19.0 25.1 37.9 99.3 92.7 318.8
10/05 10:00 16.8 59 8.43 8.8 26 32 1027.8 0 19.1 25.3 38.3 100.3 93.7 322.2
10/05 09:50 17.1 59 8.59 9 24 28 1027.8 0 19.4 25.5 38.8 101.6 95.3 328.1
10/05 09:40 16.2 61 8.41 8.7 28 32 1027.9 0 19.1 25.4 38.5 100.8 94.1 323.7
10/05 09:30 16.3 62 8.6 9 24 32 1027.9 0 19.5 25.7 39.2 102.7 96.5 331.9
10/05 09:20 16.1 63 8.64 9.1 22 24 1027.9 0 19.5 25.8 39.5 103.4 97.2 334.5
10/05 09:10 15.5 65 8.59 9 26 30 1027.9 0 19.5 25.9 39.6 103.6 97.3 334.8
10/05 09:00 15.2 67 8.7 9.1 26 32 1027.9 0 19.7 26.2 40.1 105.2 99.1 341.1
10/05 08:50 14.7 69 8.69 9.1 24 28 1027.9 0 19.7 26.3 40.4 105.8 99.6 342.8
10/05 08:40 14.2 72 8.79 9.2 28 32 1027.8 0 20.0 26.6 41.0 107.5 101.6 349.6
10/05 08:30 13.7 74 8.76 9.2 28 37 1027.8 0 19.9 26.7 41.2 107.9 101.9 350.4
10/05 08:20 13.3 77 8.9 9.4 28 30 1027.8 0 20.2 27.1 41.9 109.9 104.3 358.9
10/05 08:10 12.8 78 8.74 9.1 30 35 1027.9 0 19.9 27.0 41.5 108.9 102.8 353.6
10/05 08:00 12.4 82 8.96 9.4 26 30 1027.9 0 20.4 27.5 42.7 111.9 106.3 365.9
10/05 07:50 11.8 85 8.95 9.4 24 26 1027.9 0 20.4 27.6 43.0 112.6 107.0 368.3
10/05 07:40 11.2 88 8.92 9.3 22 26 1027.8 0 20.4 27.8 43.2 113.2 107.4 369.6
10/05 07:30 10.7 91 8.94 9.3 22 28 1027.7 0 20.5 28.0 43.5 114.1 108.4 373.0
10/05 07:20 10.2 93 8.85 9.1 22 26 1027.6 0 20.3 28.0 43.4 113.8 107.9 370.9
10/05 07:10 9.9 95 8.87 9.1 22 24 1027.4 0 20.3 28.1 43.6 114.4 108.5 373.3
10/05 07:00 9.5 97 8.83 9 19 22 1027.3 0 20.3 28.1 43.7 114.6 108.5 373.2
10/05 06:50 9.2 98 8.75 8.9 19 20 1027.3 0 20.1 28.1 43.5 114.1 107.8 370.6
10/05 06:40 9 98 8.64 8.7 19 20 1027.1 0 19.9 28.0 43.1 113.1 106.5 366.0
10/05 06:30 8.8 99 8.62 8.7 17 20 1027.1 0 19.9 28.0 43.2 113.1 106.5 366.0
10/05 06:20 8.7 98 8.48 8.4 17 20 1027 0 19.6 27.8 42.6 111.6 104.6 359.4

Last Refresh: 11-May-2026 00:30:14

Bureau of Meteorology